Time;durP1;ratioP1;P1;durP2;ratioP2;P2;SDS_P1;SDS_P2;PMS_P1;PMS_P2;Temp;Humidity;BMP_temperature;BMP_pressure;BME280_temperature;BME280_humidity;BME280_pressure;Samples;Min_cycle;Max_cycle;Signal;HPM_P1;HPM_P2
2024/03/16 00:00:06;;;;;;;1.95;0.93;;;6.80;99.90;;;;;;4975310;28;20073;-90
2024/03/16 00:02:33;;;;;;;0.85;0.50;;;6.80;99.90;;;;;;4975229;28;20113;-90
2024/03/16 00:04:58;;;;;;;1.10;0.80;;;6.80;99.90;;;;;;4975378;28;20117;-90
2024/03/16 00:07:24;;;;;;;1.50;0.80;;;6.80;99.90;;;;;;4975282;28;20145;-90
2024/03/16 00:09:50;;;;;;;2.50;0.80;;;6.80;99.90;;;;;;4975205;28;20037;-90
2024/03/16 00:12:16;;;;;;;1.60;0.60;;;6.70;99.90;;;;;;4976552;28;20037;-89
2024/03/16 00:14:44;;;;;;;2.92;0.85;;;6.70;99.90;;;;;;4975347;28;20033;-90
2024/03/16 00:17:09;;;;;;;2.05;0.77;;;6.60;99.90;;;;;;4979413;28;20018;-90
2024/03/16 00:19:35;;;;;;;5.47;0.60;;;6.60;99.90;;;;;;4975454;28;20023;-91
2024/03/16 00:22:01;;;;;;;0.80;0.47;;;6.50;99.90;;;;;;4975325;28;20365;-90
2024/03/16 00:24:27;;;;;;;1.65;0.40;;;6.50;99.90;;;;;;4975293;28;20537;-89
2024/03/16 00:26:52;;;;;;;0.88;0.40;;;6.40;99.90;;;;;;4974927;28;20484;-90
2024/03/16 00:29:18;;;;;;;1.73;0.70;;;6.30;99.90;;;;;;4975329;28;20023;-90
2024/03/16 00:31:44;;;;;;;0.60;0.50;;;6.20;99.90;;;;;;4975034;28;21212;-90
2024/03/16 00:34:09;;;;;;;1.83;0.63;;;6.10;99.90;;;;;;4975504;28;20097;-90
2024/03/16 00:36:35;;;;;;;0.52;0.40;;;6.00;99.90;;;;;;4974973;28;20025;-89
2024/03/16 00:39:01;;;;;;;1.05;0.68;;;6.00;99.90;;;;;;4975361;28;20033;-89
2024/03/16 00:41:27;;;;;;;1.42;0.50;;;5.90;99.90;;;;;;4975232;28;20034;-89
2024/03/16 00:43:52;;;;;;;3.72;0.60;;;5.80;99.90;;;;;;4975489;28;20030;-90
2024/03/16 00:46:18;;;;;;;2.03;0.60;;;5.70;99.90;;;;;;4975707;28;20023;-91
2024/03/16 00:48:44;;;;;;;1.88;0.52;;;5.60;99.90;;;;;;4975470;28;20029;-90
2024/03/16 00:51:12;;;;;;;1.80;0.80;;;5.60;99.90;;;;;;4976291;28;20037;-90
2024/03/16 00:53:41;;;;;;;0.77;0.60;;;5.50;99.90;;;;;;4975221;28;20129;-90
2024/03/16 00:56:09;;;;;;;0.93;0.68;;;5.40;99.90;;;;;;4976034;28;20035;-90
2024/03/16 00:58:35;;;;;;;0.90;0.70;;;5.40;99.90;;;;;;4975726;28;20022;-90
2024/03/16 01:01:01;;;;;;;0.45;0.40;;;5.30;99.90;;;;;;4975754;28;20105;-90
2024/03/16 01:03:26;;;;;;;1.25;0.60;;;5.30;99.90;;;;;;4976120;28;20046;-90
2024/03/16 01:05:52;;;;;;;2.65;0.43;;;5.20;99.90;;;;;;4975528;28;20026;-89
2024/03/16 01:08:18;;;;;;;4.45;0.60;;;5.20;99.90;;;;;;4975550;28;20026;-91
2024/03/16 01:10:43;;;;;;;0.80;0.50;;;5.10;99.90;;;;;;4975723;28;20018;-90
2024/03/16 01:13:09;;;;;;;4.65;0.57;;;5.10;99.90;;;;;;4973012;28;20140;-88
2024/03/16 01:15:35;;;;;;;2.25;0.80;;;5.00;99.90;;;;;;4977628;28;20517;-89
2024/03/16 01:18:00;;;;;;;5.60;1.20;;;5.00;99.90;;;;;;4978734;28;20022;-89
2024/03/16 01:20:27;;;;;;;0.95;0.50;;;4.90;99.90;;;;;;4978885;28;20022;-90
2024/03/16 01:22:53;;;;;;;1.33;0.63;;;4.90;99.90;;;;;;4978232;28;20026;-89
2024/03/16 01:25:19;;;;;;;0.95;0.43;;;4.80;99.90;;;;;;4978488;28;20030;-89
2024/03/16 01:27:45;;;;;;;3.38;0.60;;;4.80;99.90;;;;;;4978150;28;20029;-89
2024/03/16 01:30:10;;;;;;;0.93;0.73;;;4.70;99.90;;;;;;4978834;28;20112;-90
2024/03/16 01:32:36;;;;;;;3.42;0.77;;;4.70;99.90;;;;;;4978399;28;20039;-89
2024/03/16 01:35:02;;;;;;;1.50;0.65;;;4.60;99.90;;;;;;4978708;28;20519;-91
2024/03/16 01:37:30;;;;;;;2.90;0.50;;;4.60;99.90;;;;;;4976649;28;20092;-91
2024/03/16 01:39:55;;;;;;;5.18;0.80;;;4.50;99.90;;;;;;4977816;28;20501;-89
2024/03/16 01:42:22;;;;;;;0.70;0.60;;;4.50;99.90;;;;;;4978803;28;20114;-90
2024/03/16 01:45:13;;;;;;;1.33;0.50;;;4.50;99.90;;;;;;4978567;28;20022;-89
2024/03/16 01:47:39;;;;;;;3.13;0.68;;;4.40;99.90;;;;;;4977981;28;20066;-90
2024/03/16 01:50:05;;;;;;;0.80;0.50;;;4.40;99.90;;;;;;4977470;28;20057;-89
2024/03/16 01:52:32;;;;;;;2.05;0.70;;;4.30;99.90;;;;;;4977743;28;20100;-89
2024/03/16 01:54:57;;;;;;;3.22;0.60;;;4.20;99.90;;;;;;4977613;28;20025;-90
2024/03/16 01:57:23;;;;;;;2.13;0.98;;;4.20;99.90;;;;;;4978253;28;20399;-90
2024/03/16 01:59:49;;;;;;;2.10;0.70;;;4.10;99.90;;;;;;4977360;28;20019;-89
2024/03/16 02:02:39;;;;;;;0.90;0.60;;;4.10;99.90;;;;;;4977668;28;20392;-90
2024/03/16 02:05:06;;;;;;;4.53;2.13;;;4.10;99.90;;;;;;4977510;28;20034;-89
2024/03/16 02:07:39;;;;;;;2.05;0.60;;;4.00;99.90;;;;;;4977659;28;20018;-90
2024/03/16 02:10:08;;;;;;;1.45;0.60;;;4.00;99.90;;;;;;4976203;28;20033;-90
2024/03/16 02:12:34;;;;;;;2.30;0.80;;;3.90;99.90;;;;;;4977531;28;20041;-91
2024/03/16 02:15:00;;;;;;;3.35;0.90;;;3.90;99.90;;;;;;4977519;28;20030;-90
2024/03/16 02:17:26;;;;;;;2.47;1.13;;;3.80;99.90;;;;;;4978277;28;20038;-90
2024/03/16 02:19:51;;;;;;;2.35;0.60;;;3.80;99.90;;;;;;4978889;28;20022;-90
2024/03/16 02:22:19;;;;;;;1.40;0.77;;;3.80;99.90;;;;;;4979808;28;20046;-90
2024/03/16 02:24:46;;;;;;;3.38;0.82;;;3.80;99.90;;;;;;4980308;28;20030;-91
2024/03/16 02:27:12;;;;;;;1.90;0.75;;;3.90;99.90;;;;;;4977616;28;20022;-90
2024/03/16 02:29:38;;;;;;;1.33;0.70;;;3.90;99.90;;;;;;4998613;28;20027;-91
2024/03/16 02:32:08;;;;;;;1.55;0.85;;;3.90;99.90;;;;;;4992288;28;20097;-90
2024/03/16 02:34:36;;;;;;;1.90;0.63;;;3.90;99.90;;;;;;4993934;28;20041;-91
2024/03/16 02:37:05;;;;;;;2.38;0.68;;;3.90;99.90;;;;;;4994255;28;20058;-91
2024/03/16 02:39:34;;;;;;;1.50;0.90;;;3.80;99.90;;;;;;4983035;28;20069;-89
2024/03/16 02:42:02;;;;;;;2.08;0.80;;;3.80;99.90;;;;;;4980432;28;20033;-91
2024/03/16 02:44:29;;;;;;;3.05;1.05;;;3.80;99.90;;;;;;4981456;28;20018;-91
2024/03/16 02:46:57;;;;;;;1.33;0.75;;;3.80;99.90;;;;;;4980665;28;20026;-89
2024/03/16 02:49:23;;;;;;;5.07;0.75;;;3.80;99.90;;;;;;4978921;28;20027;-89
2024/03/16 02:51:50;;;;;;;1.98;0.90;;;3.70;99.90;;;;;;4962454;28;20046;-90
2024/03/16 02:54:16;;;;;;;1.30;0.50;;;3.60;99.90;;;;;;4978841;28;20030;-90
2024/03/16 02:56:42;;;;;;;2.65;0.70;;;3.60;99.90;;;;;;4977697;28;20045;-89
2024/03/16 02:59:09;;;;;;;3.42;0.90;;;3.60;99.90;;;;;;4977775;28;20030;-89
2024/03/16 03:01:36;;;;;;;2.83;0.60;;;3.50;99.90;;;;;;4976542;28;20036;-89
2024/03/16 03:04:05;;;;;;;0.75;0.52;;;3.50;99.90;;;;;;4977395;28;20034;-89
2024/03/16 03:06:30;;;;;;;1.38;0.70;;;3.50;99.90;;;;;;4977263;28;20026;-89
2024/03/16 03:08:56;;;;;;;1.92;0.57;;;3.40;99.90;;;;;;4977127;28;20456;-89
2024/03/16 03:11:22;;;;;;;1.90;0.63;;;3.40;99.90;;;;;;4976869;28;20379;-90
2024/03/16 03:13:47;;;;;;;2.90;0.95;;;3.40;99.90;;;;;;4976856;28;20018;-90
2024/03/16 03:16:19;;;;;;;1.15;0.57;;;3.30;99.90;;;;;;4976956;28;20015;-89
2024/03/16 03:18:47;;;;;;;1.73;0.85;;;3.30;99.90;;;;;;4994120;28;20022;-89
2024/03/16 03:21:13;;;;;;;5.05;1.00;;;3.30;99.90;;;;;;4977548;28;20038;-90
2024/03/16 03:23:39;;;;;;;2.42;0.70;;;3.30;99.90;;;;;;4977740;28;20014;-91
2024/03/16 03:26:05;;;;;;;1.42;0.90;;;3.20;99.90;;;;;;4994773;28;20022;-88
2024/03/16 03:28:31;;;;;;;1.88;1.00;;;3.20;99.90;;;;;;4977107;28;20133;-90
2024/03/16 03:30:56;;;;;;;3.25;0.85;;;3.10;99.90;;;;;;4976451;28;20033;-90
2024/03/16 03:33:22;;;;;;;3.03;1.05;;;3.10;99.90;;;;;;4976564;28;20117;-88
2024/03/16 03:35:47;;;;;;;1.48;0.77;;;3.10;99.90;;;;;;4975916;28;20026;-91
2024/03/16 03:38:13;;;;;;;2.80;0.85;;;3.10;99.90;;;;;;4974986;28;20038;-88
2024/03/16 03:40:41;;;;;;;1.63;1.00;;;3.10;99.90;;;;;;4976133;28;20022;-89
2024/03/16 03:43:16;;;;;;;1.48;1.30;;;3.10;99.90;;;;;;4976446;28;20029;-89
2024/03/16 03:45:52;;;;;;;1.42;1.02;;;3.00;99.90;;;;;;4976105;28;20026;-90
2024/03/16 03:48:25;;;;;;;1.05;0.77;;;3.00;99.90;;;;;;4992913;28;20114;-90
2024/03/16 03:50:55;;;;;;;2.08;0.93;;;3.00;99.90;;;;;;4975804;28;20045;-89
2024/03/16 03:53:22;;;;;;;2.55;0.80;;;3.00;99.90;;;;;;4975629;28;20034;-90
2024/03/16 03:55:48;;;;;;;2.63;0.90;;;3.00;99.90;;;;;;4975943;28;20051;-91
2024/03/16 03:58:14;;;;;;;1.45;0.80;;;2.90;99.90;;;;;;4975745;28;20022;-90
2024/03/16 04:00:44;;;;;;;0.98;0.90;;;2.90;99.90;;;;;;4975699;28;20066;-90
2024/03/16 04:03:09;;;;;;;2.88;0.90;;;2.90;99.90;;;;;;4975907;28;20035;-90
2024/03/16 04:05:35;;;;;;;0.93;0.70;;;2.80;99.90;;;;;;4974602;28;20032;-91
2024/03/16 04:08:02;;;;;;;4.18;0.80;;;2.80;99.90;;;;;;4975461;28;20027;-89
2024/03/16 04:10:28;;;;;;;1.13;0.80;;;2.80;99.90;;;;;;4975241;28;20096;-90
2024/03/16 04:12:54;;;;;;;0.98;0.73;;;2.80;99.90;;;;;;4993041;28;20030;-90
2024/03/16 04:15:19;;;;;;;1.83;0.80;;;2.70;99.90;;;;;;4975442;28;20026;-90
2024/03/16 04:17:45;;;;;;;2.92;1.10;;;2.70;99.90;;;;;;4992867;28;20023;-89
2024/03/16 04:20:14;;;;;;;1.48;1.05;;;2.70;99.90;;;;;;4992765;28;20417;-90
2024/03/16 04:22:40;;;;;;;2.55;0.70;;;2.60;99.90;;;;;;4993267;28;20198;-89
2024/03/16 04:25:11;;;;;;;2.17;0.82;;;2.60;99.90;;;;;;4975743;28;20109;-90
2024/03/16 04:27:38;;;;;;;2.10;1.17;;;2.50;99.90;;;;;;4975680;28;20521;-89
2024/03/16 04:30:08;;;;;;;1.90;0.70;;;2.60;99.90;;;;;;4975413;28;20029;-89
2024/03/16 04:32:35;;;;;;;2.90;0.80;;;2.50;99.90;;;;;;4974640;28;20038;-89
2024/03/16 04:35:01;;;;;;;3.00;0.80;;;2.50;99.90;;;;;;4975801;28;20026;-89
2024/03/16 04:37:27;;;;;;;1.70;0.98;;;2.50;99.90;;;;;;4975927;28;20049;-89
2024/03/16 04:39:53;;;;;;;2.13;1.00;;;2.50;99.90;;;;;;4993040;28;20468;-90
2024/03/16 04:42:18;;;;;;;2.67;0.63;;;2.40;99.90;;;;;;4975435;28;20562;-90
2024/03/16 04:44:44;;;;;;;2.92;0.98;;;2.40;99.90;;;;;;4975247;28;20110;-90
2024/03/16 04:47:10;;;;;;;2.47;0.93;;;2.40;99.90;;;;;;4992288;28;20050;-87
2024/03/16 04:49:35;;;;;;;1.98;0.90;;;2.40;99.90;;;;;;4975063;28;20029;-90
2024/03/16 04:52:02;;;;;;;1.75;0.77;;;2.40;99.90;;;;;;4962215;28;20079;-90
2024/03/16 04:54:28;;;;;;;1.95;0.90;;;2.40;99.90;;;;;;4979249;28;20113;-91
2024/03/16 04:56:54;;;;;;;4.03;0.85;;;2.40;99.90;;;;;;4978463;28;20054;-88
2024/03/16 04:59:19;;;;;;;1.52;0.95;;;2.40;99.90;;;;;;4963030;28;20030;-91
2024/03/16 05:01:45;;;;;;;2.08;0.75;;;2.30;99.90;;;;;;4978974;28;20034;-90
2024/03/16 05:04:12;;;;;;;3.83;0.57;;;2.30;99.90;;;;;;4978756;28;20668;-90
2024/03/16 05:06:38;;;;;;;1.80;0.80;;;2.40;99.90;;;;;;4979772;28;20030;-90
2024/03/16 05:09:05;;;;;;;2.30;0.73;;;2.30;99.90;;;;;;4978856;28;20031;-90
2024/03/16 05:11:32;;;;;;;0.73;0.73;;;2.30;99.90;;;;;;4979218;28;20081;-90
2024/03/16 05:13:59;;;;;;;2.45;0.75;;;2.30;99.90;;;;;;4977844;28;20018;-91
2024/03/16 05:16:25;;;;;;;4.55;0.77;;;2.30;99.90;;;;;;4978923;28;20049;-90
2024/03/16 05:18:50;;;;;;;2.05;0.80;;;2.30;99.90;;;;;;4996270;28;20384;-90
2024/03/16 05:21:16;;;;;;;1.90;0.80;;;2.20;99.90;;;;;;4978241;28;20023;-91
2024/03/16 05:23:45;;;;;;;0.75;0.50;;;2.20;99.90;;;;;;4979022;28;20100;-90
2024/03/16 05:26:11;;;;;;;1.45;0.70;;;2.20;99.90;;;;;;4997378;28;20010;-90
2024/03/16 05:28:39;;;;;;;1.38;0.93;;;2.20;99.90;;;;;;4996270;28;20084;-90
2024/03/16 05:31:08;;;;;;;2.95;0.90;;;2.20;99.90;;;;;;4978383;28;20042;-89
2024/03/16 05:33:36;;;;;;;2.57;0.67;;;2.10;99.90;;;;;;4978197;28;20442;-90
2024/03/16 05:36:12;;;;;;;3.58;1.00;;;2.10;99.90;;;;;;4978000;28;20073;-90
2024/03/16 05:38:40;;;;;;;2.08;0.75;;;2.10;99.90;;;;;;4978551;28;20042;-90
2024/03/16 05:41:06;;;;;;;0.98;0.70;;;2.00;99.90;;;;;;4977898;28;20026;-90
2024/03/16 05:43:32;;;;;;;4.13;0.93;;;2.00;99.90;;;;;;4995622;28;20030;-90
2024/03/16 05:45:58;;;;;;;3.05;1.00;;;1.90;99.90;;;;;;4996185;28;20026;-90
2024/03/16 05:48:24;;;;;;;3.15;0.82;;;1.90;99.90;;;;;;4977892;28;20028;-90
2024/03/16 05:50:50;;;;;;;1.33;0.82;;;1.90;99.90;;;;;;4978444;28;20022;-90
2024/03/16 05:53:16;;;;;;;3.60;0.98;;;1.90;99.90;;;;;;4978233;28;20054;-90
2024/03/16 05:55:42;;;;;;;1.60;0.80;;;1.80;99.90;;;;;;4993973;28;20014;-90
2024/03/16 05:58:07;;;;;;;1.17;0.95;;;1.90;99.90;;;;;;4978002;28;20030;-90
2024/03/16 06:00:37;;;;;;;2.05;1.10;;;1.90;99.90;;;;;;4978755;28;20109;-90
2024/03/16 06:03:04;;;;;;;2.05;1.00;;;1.90;99.90;;;;;;4995988;28;21234;-90
2024/03/16 06:05:30;;;;;;;1.48;0.70;;;1.90;99.90;;;;;;4978013;28;20498;-91
2024/03/16 06:07:55;;;;;;;1.73;0.82;;;1.90;99.90;;;;;;4995035;28;20034;-90
2024/03/16 06:10:21;;;;;;;3.45;1.00;;;1.90;99.90;;;;;;4977841;28;20447;-89
2024/03/16 06:12:47;;;;;;;1.58;0.93;;;1.90;99.90;;;;;;4977021;28;20498;-91
2024/03/16 06:15:12;;;;;;;1.77;0.93;;;1.90;99.90;;;;;;4977596;28;20463;-90
2024/03/16 06:17:38;;;;;;;1.63;0.85;;;1.80;99.90;;;;;;4977080;28;20034;-90
2024/03/16 06:20:05;;;;;;;4.43;0.95;;;1.80;99.90;;;;;;4978080;28;20104;-90
2024/03/16 06:22:31;;;;;;;3.13;1.27;;;1.80;99.90;;;;;;4977179;28;20022;-91
2024/03/16 06:24:57;;;;;;;1.35;1.10;;;1.70;99.90;;;;;;4977757;28;20025;-90
2024/03/16 06:27:23;;;;;;;3.33;1.02;;;1.70;99.90;;;;;;4977195;28;20030;-90
2024/03/16 06:29:52;;;;;;;2.63;1.02;;;1.70;99.90;;;;;;4977318;28;20019;-90
2024/03/16 06:32:28;;;;;;;1.83;1.05;;;1.70;99.90;;;;;;4975571;28;20038;-90
2024/03/16 06:34:54;;;;;;;1.65;0.93;;;1.60;99.90;;;;;;4977481;28;20030;-89
2024/03/16 06:37:19;;;;;;;1.52;1.08;;;1.60;99.90;;;;;;4977887;28;21277;-90
2024/03/16 06:39:48;;;;;;;1.30;1.13;;;1.50;99.90;;;;;;4978082;28;20026;-89
2024/03/16 06:42:13;;;;;;;1.88;1.30;;;1.50;99.90;;;;;;4994258;28;20022;-90
2024/03/16 06:44:39;;;;;;;7.30;1.30;;;1.50;99.90;;;;;;4977251;28;20158;-90
2024/03/16 06:47:06;;;;;;;1.70;0.95;;;1.50;99.90;;;;;;4977348;28;20033;-89
2024/03/16 06:49:32;;;;;;;3.95;0.95;;;1.50;99.90;;;;;;4977213;28;20045;-89
2024/03/16 06:51:58;;;;;;;3.47;1.20;;;1.60;99.90;;;;;;4976260;28;20488;-90
2024/03/16 06:54:23;;;;;;;1.42;1.20;;;1.50;99.90;;;;;;4977165;28;20605;-90
2024/03/16 06:56:49;;;;;;;2.03;1.02;;;1.60;99.90;;;;;;4974620;28;20018;-90
2024/03/16 06:59:15;;;;;;;1.20;0.90;;;1.50;99.90;;;;;;4975165;28;20053;-90
2024/03/16 07:01:40;;;;;;;2.00;1.13;;;1.50;99.90;;;;;;4975373;28;20018;-90
2024/03/16 07:04:06;;;;;;;3.42;1.30;;;1.50;99.90;;;;;;4975109;28;20246;-90
2024/03/16 07:06:32;;;;;;;2.60;1.50;;;1.50;99.90;;;;;;4975573;28;20494;-91
2024/03/16 07:09:00;;;;;;;2.17;1.50;;;1.40;99.90;;;;;;4974558;28;20128;-90
2024/03/16 07:11:25;;;;;;;4.18;1.80;;;1.40;99.90;;;;;;4990043;28;20053;-89
2024/03/16 07:13:53;;;;;;;5.00;1.35;;;1.30;99.90;;;;;;4991503;28;20046;-89
2024/03/16 07:16:21;;;;;;;4.72;1.67;;;1.40;99.90;;;;;;4974913;28;20019;-90
2024/03/16 07:18:47;;;;;;;2.28;1.85;;;1.30;99.90;;;;;;4975035;28;20062;-90
2024/03/16 07:21:19;;;;;;;1.70;1.20;;;1.30;99.90;;;;;;4974067;28;20026;-90
2024/03/16 07:23:47;;;;;;;1.67;1.23;;;1.30;99.90;;;;;;4990545;28;20070;-91
2024/03/16 07:26:13;;;;;;;2.00;1.40;;;1.20;99.90;;;;;;4975416;28;20053;-89
2024/03/16 07:28:39;;;;;;;5.50;1.63;;;1.20;99.90;;;;;;4989567;28;20054;-90
2024/03/16 07:31:04;;;;;;;4.93;1.65;;;1.30;99.90;;;;;;4974922;28;20046;-90
2024/03/16 07:33:30;;;;;;;3.50;1.67;;;1.20;99.90;;;;;;4974659;28;20050;-91
2024/03/16 07:35:56;;;;;;;4.07;1.33;;;1.20;99.90;;;;;;4974701;28;20062;-90
2024/03/16 07:38:22;;;;;;;2.13;1.20;;;1.30;99.90;;;;;;4990577;28;20145;-89
2024/03/16 07:40:47;;;;;;;6.82;1.63;;;1.30;99.90;;;;;;4975063;28;20423;-91
2024/03/16 07:43:16;;;;;;;4.72;2.03;;;1.30;99.90;;;;;;4974505;28;20018;-88
2024/03/16 07:45:42;;;;;;;3.72;1.85;;;1.30;99.90;;;;;;4974594;28;20018;-90
2024/03/16 07:48:11;;;;;;;1.90;1.48;;;1.30;99.90;;;;;;4974709;28;20022;-90
2024/03/16 07:50:36;;;;;;;1.83;1.60;;;1.40;99.90;;;;;;4989316;28;20487;-89
2024/03/16 07:53:05;;;;;;;4.45;2.00;;;1.40;99.90;;;;;;4974738;28;20042;-89
2024/03/16 07:55:31;;;;;;;6.38;1.85;;;1.50;99.90;;;;;;4974099;28;20033;-89
2024/03/16 07:57:57;;;;;;;5.65;2.60;;;1.50;99.90;;;;;;4988113;28;20031;-90
2024/03/16 08:00:22;;;;;;;3.60;2.13;;;1.60;99.90;;;;;;4974630;28;20030;-89
2024/03/16 08:02:48;;;;;;;4.32;2.00;;;1.70;99.90;;;;;;4973986;28;20391;-90
2024/03/16 08:05:14;;;;;;;2.55;1.98;;;1.70;99.90;;;;;;4988193;28;20022;-89
2024/03/16 08:07:41;;;;;;;3.05;1.85;;;1.80;99.90;;;;;;4974162;28;20029;-87
2024/03/16 08:10:09;;;;;;;4.50;2.00;;;1.80;99.90;;;;;;4988640;28;20037;-89
2024/03/16 08:12:38;;;;;;;3.95;1.65;;;1.90;99.90;;;;;;4974099;28;20073;-89
2024/03/16 08:15:05;;;;;;;2.72;1.90;;;1.90;99.90;;;;;;4974556;28;20023;-89
2024/03/16 08:17:31;;;;;;;4.20;2.00;;;2.00;99.90;;;;;;4974253;28;20097;-88
2024/03/16 08:19:57;;;;;;;2.13;1.80;;;2.00;99.90;;;;;;4988759;28;20026;-89
2024/03/16 08:22:23;;;;;;;3.05;1.60;;;2.10;99.90;;;;;;4974793;28;20073;-88
2024/03/16 08:24:49;;;;;;;3.50;2.65;;;2.10;99.90;;;;;;4976217;28;20077;-89
2024/03/16 08:27:16;;;;;;;2.63;1.80;;;2.20;99.90;;;;;;4978622;28;20038;-88
2024/03/16 08:29:42;;;;;;;2.88;1.70;;;2.20;99.90;;;;;;4979351;28;20106;-88
2024/03/16 08:32:10;;;;;;;2.80;1.98;;;2.30;99.90;;;;;;4979354;28;20606;-89
2024/03/16 08:34:36;;;;;;;2.95;1.80;;;2.40;99.90;;;;;;4980009;28;20029;-89
2024/03/16 08:37:02;;;;;;;4.70;1.98;;;2.50;99.90;;;;;;4978923;28;20022;-90
2024/03/16 08:39:27;;;;;;;3.35;1.77;;;2.50;99.90;;;;;;4993743;28;20018;-89
2024/03/16 08:41:53;;;;;;;2.55;1.73;;;2.60;99.90;;;;;;4994060;28;20034;-89
2024/03/16 08:44:19;;;;;;;3.03;1.70;;;2.60;99.90;;;;;;4994976;28;20041;-88
2024/03/16 08:46:45;;;;;;;3.35;1.88;;;2.70;99.90;;;;;;4994820;28;20064;-90
2024/03/16 08:49:11;;;;;;;4.50;2.10;;;2.80;99.90;;;;;;4978242;28;20117;-90
2024/03/16 08:51:37;;;;;;;3.72;1.75;;;2.90;99.90;;;;;;4978353;28;20034;-89
2024/03/16 08:54:05;;;;;;;4.32;1.92;;;2.90;99.90;;;;;;4977602;28;20050;-90
2024/03/16 08:56:31;;;;;;;2.60;1.75;;;3.00;99.90;;;;;;4980743;28;20026;-90
2024/03/16 08:58:57;;;;;;;2.40;1.75;;;3.10;99.90;;;;;;4994295;28;20037;-89
2024/03/16 09:01:23;;;;;;;1.98;1.58;;;3.20;99.90;;;;;;4995048;28;20018;-90
2024/03/16 09:03:49;;;;;;;6.80;2.10;;;3.30;99.90;;;;;;4978881;28;20472;-90
2024/03/16 09:06:15;;;;;;;6.53;2.33;;;3.40;99.90;;;;;;4980812;28;20115;-90
2024/03/16 09:08:41;;;;;;;3.50;1.58;;;3.50;99.90;;;;;;4978683;28;20044;-90
2024/03/16 09:11:07;;;;;;;3.40;2.03;;;3.60;99.90;;;;;;4977756;28;20101;-90
2024/03/16 09:13:35;;;;;;;6.10;2.20;;;3.70;99.90;;;;;;4978754;28;20053;-90
2024/03/16 09:16:08;;;;;;;1.83;1.33;;;3.80;99.90;;;;;;4977703;28;20022;-90
2024/03/16 09:18:38;;;;;;;4.45;2.00;;;4.00;99.90;;;;;;4977062;28;20138;-89
2024/03/16 09:21:05;;;;;;;5.18;1.80;;;4.10;99.90;;;;;;4979879;28;20037;-91
2024/03/16 09:23:31;;;;;;;3.00;2.53;;;4.20;99.90;;;;;;4977857;28;20038;-90
2024/03/16 09:25:57;;;;;;;6.05;2.40;;;4.40;99.90;;;;;;4978317;28;20110;-90
2024/03/16 09:28:23;;;;;;;5.65;2.40;;;4.50;99.90;;;;;;4977205;28;20022;-89
2024/03/16 09:30:49;;;;;;;5.57;2.13;;;4.70;99.90;;;;;;4976407;28;20022;-89
2024/03/16 09:33:15;;;;;;;4.53;2.30;;;4.80;99.90;;;;;;4977636;28;20039;-89
2024/03/16 09:35:45;;;;;;;5.03;2.30;;;5.00;99.90;;;;;;4976985;28;20497;-89
2024/03/16 09:38:12;;;;;;;4.45;2.38;;;5.10;99.90;;;;;;4978163;28;20034;-90
2024/03/16 09:40:43;;;;;;;3.90;2.50;;;5.30;99.90;;;;;;4977515;28;20050;-90
2024/03/16 09:43:12;;;;;;;5.50;2.53;;;5.50;99.90;;;;;;4977779;28;20026;-89
2024/03/16 09:45:40;;;;;;;6.57;2.22;;;5.70;99.90;;;;;;4978278;28;20030;-91
2024/03/16 09:48:12;;;;;;;5.63;2.40;;;5.90;99.90;;;;;;4977758;28;20498;-91
2024/03/16 09:50:47;;;;;;;7.60;2.65;;;6.20;99.90;;;;;;4993783;28;20479;-90
2024/03/16 09:53:35;;;;;;;4.75;2.78;;;6.50;99.90;;;;;;4976756;28;20049;-90
2024/03/16 09:56:10;;;;;;;6.07;2.67;;;6.80;99.90;;;;;;4978503;28;20030;-91
2024/03/16 09:58:40;;;;;;;7.35;2.15;;;7.10;99.90;;;;;;4976371;28;20491;-90
2024/03/16 10:01:08;;;;;;;8.10;4.70;;;7.40;99.90;;;;;;4976591;28;20507;-90
2024/03/16 10:03:35;;;;;;;3.55;2.00;;;7.80;99.90;;;;;;4976826;28;20274;-91
2024/03/16 10:06:05;;;;;;;4.20;2.00;;;8.10;99.90;;;;;;4976772;28;20018;-90
2024/03/16 10:08:31;;;;;;;;;;;8.40;99.90;;;;;;4977394;28;20022;-91
2024/03/16 10:11:10;;;;;;;3.40;1.70;;;8.70;99.90;;;;;;4977353;28;19988;-91
2024/03/16 10:13:42;;;;;;;3.60;1.80;;;9.00;99.90;;;;;;5000892;28;20125;-92
2024/03/16 10:16:10;;;;;;;1.95;1.60;;;9.20;99.90;;;;;;4975814;28;20030;-91
2024/03/16 10:18:36;;;;;;;3.83;1.67;;;9.40;99.90;;;;;;4976025;28;20034;-90
2024/03/16 10:21:03;;;;;;;4.47;1.67;;;9.50;99.90;;;;;;4978022;28;20027;-91
2024/03/16 10:23:31;;;;;;;3.95;1.50;;;9.70;99.90;;;;;;4978755;28;20035;-91
2024/03/16 10:25:57;;;;;;;5.63;1.60;;;10.00;99.90;;;;;;4974904;28;20022;-92
2024/03/16 10:28:24;;;;;;;2.95;1.58;;;10.20;99.90;;;;;;4974118;28;20031;-91
2024/03/16 10:30:49;;;;;;;3.08;1.50;;;10.40;99.90;;;;;;4976817;28;20057;-90
2024/03/16 10:33:18;;;;;;;3.13;1.80;;;10.50;99.90;;;;;;4976047;28;20070;-91
2024/03/16 10:35:45;;;;;;;1.80;1.05;;;10.60;99.90;;;;;;4975717;28;20229;-89
2024/03/16 10:38:18;;;;;;;3.17;1.33;;;10.80;99.90;;;;;;4975434;28;20085;-89
2024/03/16 10:40:45;;;;;;;2.03;1.00;;;10.70;99.90;;;;;;4975003;28;20557;-89
2024/03/16 10:43:16;;;;;;;2.45;1.45;;;10.70;99.90;;;;;;4976085;28;20026;-89
2024/03/16 10:45:45;;;;;;;2.13;1.58;;;10.70;99.90;;;;;;4993327;28;20678;-90
2024/03/16 10:48:13;;;;;;;4.90;1.58;;;10.70;99.90;;;;;;4975175;28;20474;-90
2024/03/16 10:50:43;;;;;;;3.40;1.70;;;10.70;99.90;;;;;;4976085;28;20022;-90
2024/03/16 10:53:10;;;;;;;2.67;1.60;;;10.90;99.90;;;;;;4960049;28;20125;-90
2024/03/16 10:55:40;;;;;;;2.70;1.40;;;10.90;99.90;;;;;;4978679;28;20033;-91
2024/03/16 10:58:25;;;;;;;1.80;1.23;;;11.00;99.90;;;;;;4973171;28;20053;-90
2024/03/16 11:01:15;;;;;;;2.65;1.52;;;11.10;99.90;;;;;;4973462;28;20026;-89
2024/03/16 11:03:43;;;;;;;2.70;1.50;;;11.20;99.90;;;;;;4975999;28;20018;-89
2024/03/16 11:06:18;;;;;;;1.63;0.95;;;11.60;99.90;;;;;;4975180;28;20050;-90
2024/03/16 11:08:46;;;;;;;2.38;1.20;;;11.70;99.90;;;;;;4975040;28;20022;-90
2024/03/16 11:11:17;;;;;;;2.35;1.15;;;11.70;99.90;;;;;;4975378;28;20034;-90
2024/03/16 11:14:16;;;;;;;2.28;1.30;;;11.40;99.90;;;;;;4974210;28;20018;-90
2024/03/16 11:16:47;;;;;;;2.10;1.25;;;11.30;99.90;;;;;;4991092;28;20041;-90
2024/03/16 11:19:17;;;;;;;3.58;1.20;;;11.20;99.90;;;;;;4973350;28;20111;-89
2024/03/16 11:21:48;;;;;;;2.42;1.50;;;11.10;99.90;;;;;;4975277;28;20038;-90
2024/03/16 11:24:16;;;;;;;2.92;1.70;;;11.00;99.90;;;;;;4974589;28;20053;-90
2024/03/16 11:26:43;;;;;;;2.42;1.42;;;11.10;99.90;;;;;;4987999;28;20023;-90
2024/03/16 11:29:09;;;;;;;2.72;1.55;;;11.10;99.90;;;;;;4970431;28;20053;-90
2024/03/16 11:31:41;;;;;;;3.67;1.58;;;11.10;99.90;;;;;;4987800;28;20426;-90
2024/03/16 11:34:19;;;;;;;1.90;1.45;;;11.00;99.90;;;;;;4969185;28;20023;-89
2024/03/16 11:36:56;;;;;;;3.20;1.90;;;11.00;99.90;;;;;;4968938;28;20022;-90
2024/03/16 11:39:24;;;;;;;3.20;1.95;;;10.90;99.90;;;;;;4990021;28;20113;-91
2024/03/16 11:41:53;;;;;;;3.90;1.42;;;11.10;99.90;;;;;;4975583;28;20026;-88
2024/03/16 11:44:20;;;;;;;2.28;1.30;;;11.30;99.90;;;;;;4976408;28;20057;-88
2024/03/16 11:46:48;;;;;;;3.75;1.75;;;11.40;99.80;;;;;;4974721;28;20052;-87
2024/03/16 11:49:15;;;;;;;4.63;1.90;;;11.50;99.60;;;;;;4975793;28;20041;-90
2024/03/16 11:51:42;;;;;;;4.30;1.75;;;11.60;99.00;;;;;;4975499;28;20077;-88
2024/03/16 11:54:08;;;;;;;4.38;1.50;;;11.60;98.50;;;;;;4976262;28;20070;-89
2024/03/16 11:56:35;;;;;;;2.17;1.63;;;11.70;98.20;;;;;;4970868;28;20030;-87
2024/03/16 11:59:04;;;;;;;2.83;1.70;;;11.70;97.90;;;;;;4976783;28;20030;-89
2024/03/16 12:01:32;;;;;;;3.13;1.83;;;11.70;97.30;;;;;;4977279;28;20041;-88
2024/03/16 12:03:59;;;;;;;4.32;1.95;;;11.80;96.40;;;;;;4976547;28;20542;-89
2024/03/16 12:06:26;;;;;;;2.63;2.03;;;11.70;96.40;;;;;;4975937;28;20045;-90
2024/03/16 12:08:52;;;;;;;3.92;2.17;;;11.70;96.60;;;;;;4975220;28;20078;-89
2024/03/16 12:11:21;;;;;;;4.07;2.00;;;11.70;95.80;;;;;;4977108;28;20130;-90
2024/03/16 12:13:47;;;;;;;6.22;2.10;;;11.60;96.20;;;;;;4976580;28;20038;-88
2024/03/16 12:16:12;;;;;;;2.92;2.03;;;11.50;96.20;;;;;;4977164;28;20049;-88
2024/03/16 12:18:39;;;;;;;6.32;2.08;;;11.40;96.00;;;;;;4976727;28;20150;-89
2024/03/16 12:21:06;;;;;;;2.83;2.00;;;11.30;95.90;;;;;;4976780;28;20439;-88
2024/03/16 12:23:36;;;;;;;3.00;1.63;;;11.10;96.10;;;;;;4977291;28;20089;-88
2024/03/16 12:26:02;;;;;;;4.13;2.30;;;11.00;96.60;;;;;;4977780;28;20502;-89
2024/03/16 12:28:29;;;;;;;3.40;2.50;;;10.90;97.00;;;;;;4976767;28;20126;-90
2024/03/16 12:30:58;;;;;;;4.00;2.13;;;10.90;97.20;;;;;;4977708;28;20030;-90
2024/03/16 12:33:25;;;;;;;6.17;2.73;;;10.90;97.20;;;;;;4976893;28;20039;-90
2024/03/16 12:35:50;;;;;;;4.57;2.10;;;10.80;97.80;;;;;;4975990;28;20475;-87
2024/03/16 12:38:16;;;;;;;4.38;2.17;;;10.90;97.90;;;;;;4975893;28;20022;-90
2024/03/16 12:40:42;;;;;;;5.22;2.40;;;10.90;98.10;;;;;;4975986;28;20014;-88
2024/03/16 12:43:08;;;;;;;6.22;2.28;;;10.90;98.00;;;;;;4976240;28;20029;-87
2024/03/16 12:45:35;;;;;;;4.30;2.47;;;10.90;97.80;;;;;;4977463;28;20042;-87
2024/03/16 12:48:01;;;;;;;4.80;2.45;;;10.90;97.70;;;;;;4980280;28;20495;-88
2024/03/16 12:50:27;;;;;;;5.07;2.65;;;10.80;97.90;;;;;;4976047;28;20100;-89
2024/03/16 12:52:53;;;;;;;5.82;2.63;;;10.80;98.30;;;;;;4975862;28;20057;-89
2024/03/16 12:55:20;;;;;;;6.30;3.03;;;10.80;98.50;;;;;;4975748;28;20475;-89